createdAt,value
2018-01-04T00:00:10.907Z,4.72
2018-01-04T00:02:39.512Z,4.68
2018-01-04T00:05:07.278Z,4.84
2018-01-04T00:07:35.551Z,5.15
2018-01-04T00:10:03.305Z,4.80
2018-01-04T00:12:31.072Z,4.78
2018-01-04T00:14:58.911Z,4.81
2018-01-04T00:17:26.715Z,5.15
2018-01-04T00:19:54.370Z,4.99
2018-01-04T00:22:21.975Z,5.27
2018-01-04T00:24:49.669Z,5.08
2018-01-04T00:27:18.177Z,4.59
2018-01-04T00:29:46.454Z,4.81
2018-01-04T00:32:14.366Z,4.85
2018-01-04T00:34:41.955Z,5.01
2018-01-04T00:37:09.528Z,5.41
2018-01-04T00:39:37.306Z,5.24
2018-01-04T00:42:04.939Z,5.35
2018-01-04T00:44:32.698Z,5.19
2018-01-04T00:47:00.474Z,5.40
2018-01-04T00:49:28.102Z,5.60
2018-01-04T00:51:56.133Z,5.63
2018-01-04T00:54:24.046Z,5.37
2018-01-04T00:56:51.670Z,4.98
2018-01-04T00:59:19.305Z,5.36
2018-01-04T01:01:46.872Z,5.01
2018-01-04T01:04:14.506Z,5.21
2018-01-04T01:06:42.130Z,5.11
2018-01-04T01:09:10.008Z,4.81
2018-01-04T01:11:37.657Z,4.97
2018-01-04T01:14:05.353Z,4.97
2018-01-04T01:16:33.160Z,5.11
2018-01-04T01:19:00.733Z,5.05
2018-01-04T01:21:33.660Z,5.10
2018-01-04T01:24:01.305Z,5.23
2018-01-04T01:26:28.877Z,4.99
2018-01-04T01:28:56.489Z,5.11
2018-01-04T01:31:24.214Z,4.98
2018-01-04T01:33:52.727Z,5.19
2018-01-04T01:36:20.394Z,5.29
2018-01-04T01:38:47.988Z,5.21
2018-01-04T01:41:15.668Z,5.31
2018-01-04T01:43:43.460Z,5.11
2018-01-04T01:46:11.059Z,5.05
2018-01-04T01:48:39.336Z,5.04
2018-01-04T01:51:06.970Z,4.97
2018-01-04T01:53:34.758Z,5.22
2018-01-04T01:56:02.588Z,5.14
2018-01-04T01:58:30.282Z,5.40
2018-01-04T02:00:57.936Z,4.98
2018-01-04T02:03:25.577Z,5.15
2018-01-04T02:05:53.226Z,5.01
2018-01-04T02:08:20.856Z,5.06
2018-01-04T02:10:48.473Z,4.86
2018-01-04T02:13:16.230Z,4.86
2018-01-04T02:15:44.030Z,5.10
2018-01-04T02:18:23.558Z,4.96
2018-01-04T02:21:02.733Z,5.12
2018-01-04T02:23:42.056Z,5.11
2018-01-04T02:26:09.744Z,4.95
2018-01-04T02:28:49.095Z,4.97
2018-01-04T02:31:28.663Z,4.59
2018-01-04T02:34:08.067Z,4.34
2018-01-04T02:36:47.468Z,3.89
2018-01-04T02:39:26.718Z,4.32
2018-01-04T02:42:06.209Z,4.56
2018-01-04T02:44:43.466Z,4.66
2018-01-04T02:47:11.154Z,3.86
2018-01-04T02:49:38.818Z,3.98
2018-01-04T02:52:06.392Z,4.23
2018-01-04T02:54:33.988Z,3.49
2018-01-04T02:57:01.630Z,3.53
2018-01-04T02:59:29.222Z,3.75
2018-01-04T03:01:57.689Z,3.71
2018-01-04T03:04:25.294Z,3.87
2018-01-04T03:06:53.068Z,3.80
2018-01-04T03:09:20.728Z,3.96
2018-01-04T03:11:49.133Z,4.33
2018-01-04T03:14:17.360Z,4.55
2018-01-04T03:16:45.613Z,4.31
2018-01-04T03:19:13.295Z,4.59
2018-01-04T03:21:48.129Z,4.69
2018-01-04T03:24:16.064Z,4.78
2018-01-04T03:26:49.251Z,4.87
2018-01-04T03:29:33.251Z,4.78
2018-01-04T03:35:18.872Z,5.10
2018-01-04T03:37:51.961Z,4.82
2018-01-04T03:40:25.109Z,4.78
2018-01-04T03:46:02.978Z,4.56
2018-01-04T03:48:30.606Z,4.44
2018-01-04T03:51:03.860Z,4.75
2018-01-04T03:53:36.941Z,4.92
2018-01-04T03:56:10.024Z,4.14
2018-01-04T03:58:43.321Z,3.90
2018-01-04T04:01:16.458Z,4.21
2018-01-04T04:03:44.089Z,4.34
2018-01-04T04:06:17.911Z,4.22
2018-01-04T04:08:45.497Z,4.25
2018-01-04T04:11:13.335Z,4.52
2018-01-04T04:13:41.184Z,4.40
2018-01-04T04:16:08.810Z,4.80
2018-01-04T04:18:36.392Z,4.73
2018-01-04T04:21:04.055Z,4.56
2018-01-04T04:23:32.463Z,4.52
2018-01-04T04:26:00.075Z,4.28
2018-01-04T04:28:27.700Z,4.17
2018-01-04T04:30:55.271Z,4.14
2018-01-04T04:33:23.082Z,4.31
2018-01-04T04:35:50.723Z,4.26
2018-01-04T04:38:18.348Z,4.14
2018-01-04T04:40:46.159Z,3.64
2018-01-04T04:43:13.783Z,3.41
2018-01-04T04:45:41.982Z,3.81
2018-01-04T04:48:10.392Z,4.01
2018-01-04T04:50:38.034Z,3.64
2018-01-04T04:53:05.699Z,4.44
2018-01-04T04:55:33.399Z,4.60
2018-01-04T04:58:00.968Z,4.82
2018-01-04T05:00:28.604Z,4.88
2018-01-04T05:02:56.195Z,5.02
2018-01-04T05:05:23.851Z,4.84
2018-01-04T05:07:51.480Z,4.70
2018-01-04T05:10:19.384Z,4.56
2018-01-04T05:12:47.106Z,4.77
2018-01-04T05:15:14.823Z,4.68
2018-01-04T05:17:42.542Z,4.81
2018-01-04T05:20:10.178Z,4.90
2018-01-04T05:22:37.877Z,4.78
2018-01-04T05:25:05.776Z,6.17
2018-01-04T05:27:33.343Z,6.76
2018-01-04T05:30:00.922Z,5.95
2018-01-04T05:32:28.546Z,4.83
2018-01-04T05:34:56.399Z,5.29
2018-01-04T05:37:23.985Z,4.53
2018-01-04T05:39:51.619Z,5.19
2018-01-04T05:42:19.271Z,5.30
2018-01-04T05:44:46.927Z,5.33
2018-01-04T05:47:14.611Z,5.21
2018-01-04T05:49:42.429Z,4.68
2018-01-04T05:52:10.288Z,4.54
2018-01-04T05:54:38.422Z,4.58
2018-01-04T05:57:07.596Z,4.45
2018-01-04T05:59:35.426Z,4.83
2018-01-04T06:02:03.101Z,4.67
2018-01-04T06:04:31.181Z,4.93
2018-01-04T06:06:58.787Z,5.10
2018-01-04T06:09:26.357Z,5.23
2018-01-04T06:11:54.244Z,5.14
2018-01-04T06:14:23.605Z,5.41
2018-01-04T06:16:51.396Z,5.06
2018-01-04T06:19:19.442Z,4.89
2018-01-04T06:21:48.873Z,4.76
2018-01-04T06:24:17.485Z,4.90
2018-01-04T06:26:45.351Z,4.57
2018-01-04T06:29:13.314Z,4.94
2018-01-04T06:31:41.174Z,4.70
2018-01-04T06:34:09.046Z,4.85
2018-01-04T06:36:38.323Z,5.27
2018-01-04T06:39:05.986Z,5.37
2018-01-04T06:41:33.822Z,4.73
2018-01-04T06:44:02.511Z,4.61
2018-01-04T06:46:31.011Z,5.23
2018-01-04T06:48:58.716Z,5.26
2018-01-04T06:51:26.282Z,5.46
2018-01-04T06:53:54.045Z,5.51
2018-01-04T06:56:26.036Z,5.45
2018-01-04T06:58:54.140Z,5.45
2018-01-04T07:01:22.468Z,5.56
2018-01-04T07:03:50.132Z,5.76
2018-01-04T07:06:18.122Z,5.72
2018-01-04T07:08:45.908Z,5.74
2018-01-04T07:11:13.960Z,5.76
2018-01-04T07:13:41.575Z,5.63
2018-01-04T07:16:10.013Z,5.46
2018-01-04T07:18:38.062Z,5.70
2018-01-04T07:21:06.045Z,5.82
2018-01-04T07:23:33.957Z,5.69
2018-01-04T07:26:01.745Z,5.65
2018-01-04T07:28:30.255Z,5.55
2018-01-04T07:30:58.145Z,5.43
2018-01-04T07:33:25.993Z,5.44
2018-01-04T07:35:53.589Z,5.57
2018-01-04T07:38:21.419Z,5.62
2018-01-04T07:40:49.128Z,5.47
2018-01-04T07:43:17.392Z,5.55
2018-01-04T07:45:45.196Z,5.47
2018-01-04T07:48:13.127Z,5.57
2018-01-04T07:50:41.654Z,5.45
2018-01-04T07:53:09.324Z,5.60
2018-01-04T07:55:37.080Z,5.59
2018-01-04T07:58:04.789Z,5.83
2018-01-04T08:00:32.615Z,5.81
2018-01-04T08:03:00.453Z,5.70
2018-01-04T08:05:28.398Z,5.92
2018-01-04T08:07:56.259Z,6.24
2018-01-04T08:10:24.209Z,6.31
2018-01-04T08:12:52.004Z,6.53
2018-01-04T08:15:19.820Z,6.41
2018-01-04T08:17:48.114Z,6.64
2018-01-04T08:20:15.683Z,6.52
2018-01-04T08:22:43.345Z,6.61
2018-01-04T08:25:11.532Z,6.76
2018-01-04T08:27:39.146Z,6.35
2018-01-04T08:30:08.257Z,6.32
2018-01-04T08:32:36.668Z,6.29
2018-01-04T08:35:04.258Z,6.43
2018-01-04T08:37:31.903Z,6.35
2018-01-04T08:39:59.435Z,6.21
2018-01-04T08:42:26.989Z,6.15
2018-01-04T08:44:54.624Z,5.98
2018-01-04T08:47:22.736Z,6.11
2018-01-04T08:49:50.295Z,6.05
2018-01-04T08:52:17.871Z,6.05
2018-01-04T08:54:45.420Z,6.31
2018-01-04T08:57:13.023Z,6.26
2018-01-04T08:59:40.678Z,6.04
2018-01-04T09:02:08.346Z,6.03
2018-01-04T09:04:36.250Z,6.09
2018-01-04T09:07:03.901Z,6.21
2018-01-04T09:09:31.735Z,6.45
2018-01-04T09:11:59.354Z,6.36
2018-01-04T09:14:26.927Z,6.37
2018-01-04T09:16:54.644Z,6.37
2018-01-04T09:19:22.429Z,6.22
2018-01-04T09:21:50.182Z,6.03
2018-01-04T09:24:18.555Z,6.45
2018-01-04T09:26:46.696Z,6.42
2018-01-04T09:29:15.095Z,6.55
2018-01-04T09:31:42.702Z,6.31
2018-01-04T09:34:10.991Z,6.47
2018-01-04T09:36:38.926Z,6.41
2018-01-04T09:39:06.505Z,6.50
2018-01-04T09:41:34.322Z,6.72
2018-01-04T09:44:02.669Z,6.72
2018-01-04T09:46:30.298Z,6.95
2018-01-04T09:48:57.847Z,7.14
2018-01-04T09:51:26.504Z,7.72
2018-01-04T09:53:54.320Z,7.96
2018-01-04T09:56:21.846Z,8.33
2018-01-04T09:58:49.477Z,8.73
2018-01-04T10:01:17.783Z,8.53
2018-01-04T10:03:45.415Z,8.68
2018-01-04T10:06:13.884Z,8.80
2018-01-04T10:08:41.508Z,8.85
2018-01-04T10:11:09.151Z,8.76
2018-01-04T10:13:36.761Z,8.48
2018-01-04T10:16:04.342Z,7.94
2018-01-04T10:18:32.188Z,8.22
2018-01-04T10:21:00.678Z,7.98
2018-01-04T10:23:28.328Z,7.78
2018-01-04T10:25:56.033Z,7.83
2018-01-04T10:28:23.749Z,7.71
2018-01-04T10:30:51.805Z,7.71
2018-01-04T10:33:20.400Z,7.53
2018-01-04T10:35:48.072Z,7.41
2018-01-04T10:38:15.686Z,7.37
2018-01-04T10:40:44.210Z,7.27
2018-01-04T10:43:12.000Z,7.34
2018-01-04T10:45:39.658Z,7.37
2018-01-04T10:48:08.030Z,7.19
2018-01-04T10:50:36.026Z,7.43
2018-01-04T10:53:04.986Z,7.17
2018-01-04T10:55:32.699Z,7.04
2018-01-04T10:58:00.622Z,7.01
2018-01-04T11:00:29.119Z,6.93
2018-01-04T11:02:58.522Z,6.85
2018-01-04T11:05:27.020Z,6.92
2018-01-04T11:07:54.696Z,7.03
2018-01-04T11:10:22.365Z,6.96
2018-01-04T11:12:50.129Z,6.90
2018-01-04T11:15:18.642Z,6.75
2018-01-04T11:17:46.501Z,7.09
2018-01-04T11:20:14.154Z,6.97
2018-01-04T11:22:41.825Z,7.15
2018-01-04T11:25:10.446Z,7.18
2018-01-04T11:27:38.104Z,7.19
2018-01-04T11:30:08.275Z,7.16
2018-01-04T11:32:35.912Z,6.99
2018-01-04T11:35:04.708Z,7.26
2018-01-04T11:37:33.486Z,7.02
2018-01-04T11:40:01.109Z,7.12
2018-01-04T11:42:28.884Z,7.22
2018-01-04T11:44:57.694Z,7.11
2018-01-04T11:47:25.490Z,7.39
2018-01-04T11:49:53.798Z,7.09
2018-01-04T11:52:21.681Z,7.31
2018-01-04T11:54:49.351Z,7.24
2018-01-04T11:57:16.937Z,7.25
2018-01-04T11:59:44.798Z,7.27
2018-01-04T12:02:12.432Z,7.42
2018-01-04T12:04:40.028Z,7.05
2018-01-04T12:07:07.645Z,6.96
2018-01-04T12:09:36.075Z,7.18
2018-01-04T12:12:03.696Z,7.32
2018-01-04T12:14:31.309Z,6.99
2018-01-04T12:16:58.968Z,7.09
2018-01-04T12:19:26.570Z,7.00
2018-01-04T12:21:56.197Z,6.94
2018-01-04T12:24:23.827Z,6.89
2018-01-04T12:26:51.501Z,6.90
2018-01-04T12:29:19.916Z,6.85
2018-01-04T12:31:47.747Z,6.95
2018-01-04T12:34:15.349Z,6.67
2018-01-04T12:36:43.187Z,6.87
2018-01-04T12:39:10.803Z,6.80
2018-01-04T12:41:40.902Z,6.86
2018-01-04T12:44:08.535Z,7.01
2018-01-04T12:46:36.217Z,6.96
2018-01-04T12:49:03.834Z,7.05
2018-01-04T12:51:31.931Z,7.02
2018-01-04T12:54:00.265Z,6.94
2018-01-04T12:56:28.128Z,7.04
2018-01-04T12:58:55.948Z,7.04
2018-01-04T13:01:24.298Z,7.13
2018-01-04T13:03:52.103Z,7.06
2018-01-04T13:06:19.754Z,7.14
2018-01-04T13:08:47.369Z,6.99
2018-01-04T13:11:15.366Z,7.02
2018-01-04T13:13:43.298Z,6.99
2018-01-04T13:16:11.605Z,7.11
2018-01-04T13:18:39.167Z,7.10
2018-01-04T13:21:07.270Z,7.12
2018-01-04T13:23:35.234Z,7.25
2018-01-04T13:26:03.527Z,6.93
2018-01-04T13:28:31.186Z,7.13
2018-01-04T13:30:59.541Z,7.13
2018-01-04T13:33:30.751Z,7.12
2018-01-04T13:35:58.307Z,7.15
2018-01-04T13:38:26.152Z,7.09
2018-01-04T13:40:57.313Z,7.02
2018-01-04T13:43:24.952Z,6.90
2018-01-04T13:45:52.607Z,6.99
2018-01-04T13:48:20.402Z,6.94
2018-01-04T13:50:47.957Z,6.96
2018-01-04T13:53:15.629Z,7.00
2018-01-04T13:55:43.466Z,6.93
2018-01-04T13:58:11.087Z,7.16
2018-01-04T14:00:38.972Z,7.20
2018-01-04T14:03:06.793Z,7.24
2018-01-04T14:05:34.458Z,7.09
2018-01-04T14:08:02.092Z,7.39
2018-01-04T14:10:29.742Z,7.53
2018-01-04T14:12:57.564Z,7.61
2018-01-04T14:15:26.156Z,8.17
2018-01-04T14:17:57.253Z,8.20
2018-01-04T14:20:24.883Z,8.14
2018-01-04T14:46:59.613Z,7.44
2018-01-04T14:49:27.447Z,7.42
2018-01-04T14:51:55.058Z,7.38
2018-01-04T14:54:23.628Z,7.19
2018-01-04T14:56:51.347Z,7.23
2018-01-04T14:59:18.971Z,7.21
2018-01-04T15:01:46.596Z,7.05
2018-01-04T15:04:14.189Z,7.04
2018-01-04T15:06:41.976Z,7.10
2018-01-04T15:09:09.758Z,7.08
2018-01-04T15:11:37.410Z,6.98
2018-01-04T15:14:05.102Z,6.90
2018-01-04T15:16:33.046Z,6.94
2018-01-04T15:19:01.502Z,6.99
2018-01-04T15:21:29.227Z,6.97
2018-01-04T15:23:57.237Z,6.89
2018-01-04T15:26:24.915Z,6.60
2018-01-04T15:28:52.575Z,6.83
2018-01-04T15:31:20.344Z,6.65
2018-01-04T15:33:48.139Z,6.70
2018-01-04T15:36:15.735Z,6.68
2018-01-04T15:38:43.338Z,6.74
2018-01-04T15:41:11.110Z,6.88
2018-01-04T15:43:38.750Z,6.88
2018-01-04T15:46:07.568Z,6.64
2018-01-04T15:48:35.662Z,6.61
2018-01-04T15:51:04.236Z,6.64
2018-01-04T15:53:31.905Z,6.28
2018-01-04T15:55:59.557Z,6.54
2018-01-04T15:58:27.291Z,6.57
2018-01-04T16:00:54.948Z,6.47
2018-01-04T16:03:22.652Z,6.50
2018-01-04T16:05:50.279Z,6.49
2018-01-04T16:08:18.617Z,6.42
2018-01-04T16:10:46.292Z,6.41
2018-01-04T16:13:13.966Z,6.38
2018-01-04T16:15:41.707Z,6.25
2018-01-04T16:18:09.373Z,6.23
2018-01-04T16:20:37.259Z,6.16
2018-01-04T16:23:04.981Z,6.19
2018-01-04T16:25:33.131Z,6.14
2018-01-04T16:28:00.755Z,6.13
2018-01-04T16:30:28.484Z,6.20
2018-01-04T16:32:56.164Z,6.24
2018-01-04T16:35:23.933Z,6.26
2018-01-04T16:37:52.500Z,6.22
2018-01-04T16:40:20.108Z,6.30
2018-01-04T16:42:47.708Z,6.31
2018-01-04T16:45:24.107Z,6.37
2018-01-04T16:47:51.989Z,6.32
2018-01-04T16:50:19.748Z,6.32
2018-01-04T16:52:47.603Z,6.34
2018-01-04T16:55:15.365Z,6.24
2018-01-04T16:57:43.001Z,6.17
2018-01-04T17:00:11.481Z,6.17
2018-01-04T17:02:39.129Z,6.22
2018-01-04T17:05:06.725Z,6.17
2018-01-04T17:07:34.391Z,6.12
2018-01-04T17:10:02.805Z,6.11
2018-01-04T17:12:30.498Z,6.06
2018-01-04T17:14:58.206Z,5.95
2018-01-04T17:17:25.838Z,5.96
2018-01-04T17:19:53.468Z,5.93
2018-01-04T17:22:21.174Z,6.09
2018-01-04T17:24:49.164Z,6.01
2018-01-04T17:27:16.832Z,6.09
2018-01-04T17:29:45.370Z,6.10
2018-01-04T17:32:13.050Z,6.00
2018-01-04T17:34:40.690Z,5.95
2018-01-04T17:37:09.247Z,6.00
2018-01-04T17:39:37.923Z,5.76
2018-01-04T17:42:05.592Z,5.83
2018-01-04T17:44:33.287Z,5.84
2018-01-04T17:47:01.360Z,5.87
2018-01-04T17:49:29.036Z,5.89
2018-01-04T17:51:56.701Z,5.91
2018-01-04T17:54:24.458Z,5.94
2018-01-04T17:56:55.102Z,5.90
2018-01-04T17:59:23.671Z,5.76
2018-01-04T18:01:51.569Z,5.78
2018-01-04T18:04:19.478Z,6.08
2018-01-04T18:06:47.819Z,5.74
2018-01-04T18:09:15.560Z,5.89
2018-01-04T18:11:45.284Z,5.84
2018-01-04T18:14:12.982Z,5.82
2018-01-04T18:16:40.934Z,5.83
2018-01-04T18:19:09.173Z,5.77
2018-01-04T18:21:36.784Z,6.16
2018-01-04T18:26:32.290Z,5.93
2018-01-04T18:29:00.313Z,6.13
2018-01-04T18:31:27.941Z,6.10
2018-01-04T18:33:55.820Z,6.05
2018-01-04T18:36:25.606Z,6.06
2018-01-04T18:38:53.424Z,6.16
2018-01-04T18:41:21.095Z,6.10
2018-01-04T18:43:48.836Z,6.18
2018-01-04T18:46:16.630Z,6.12
2018-01-04T18:48:44.291Z,6.04
2018-01-04T18:51:12.096Z,6.10
2018-01-04T18:53:39.846Z,6.26
2018-01-04T18:56:08.194Z,6.01
2018-01-04T18:58:35.882Z,6.01
2018-01-04T19:01:03.674Z,5.93
2018-01-04T19:03:31.293Z,5.85
2018-01-04T19:05:58.951Z,6.16
2018-01-04T19:08:26.728Z,6.04
2018-01-04T19:10:54.373Z,5.98
2018-01-04T19:13:22.708Z,5.73
2018-01-04T19:15:50.584Z,5.82
2018-01-04T19:18:18.652Z,5.90
2018-01-04T19:20:46.435Z,5.86
2018-01-04T19:23:14.170Z,5.81
2018-01-04T19:25:41.837Z,6.05
2018-01-04T19:28:09.781Z,5.86
2018-01-04T19:30:39.114Z,5.58
2018-01-04T19:33:07.722Z,5.92
2018-01-04T19:35:35.532Z,5.85
2018-01-04T19:38:03.136Z,5.82
2018-01-04T19:40:30.916Z,5.97
2018-01-04T19:42:59.570Z,5.60
2018-01-04T19:45:27.200Z,5.60
2018-01-04T19:47:54.822Z,5.43
2018-01-04T19:50:22.541Z,5.35
2018-01-04T19:52:51.188Z,5.29
2018-01-04T19:55:18.995Z,5.36
2018-01-04T19:57:48.162Z,5.56
2018-01-04T20:00:20.636Z,5.38
2018-01-04T20:02:48.913Z,5.27
2018-01-04T20:05:17.817Z,5.81
2018-01-04T20:07:45.866Z,5.46
2018-01-04T20:10:13.726Z,5.45
2018-01-04T20:12:43.534Z,5.51
2018-01-04T20:15:11.278Z,5.45
2018-01-04T20:17:40.056Z,4.93
2018-01-04T20:22:41.374Z,5.43
2018-01-04T20:25:09.110Z,5.49
2018-01-04T20:35:53.702Z,4.59
2018-01-04T20:38:21.379Z,4.66
2018-01-04T20:40:49.041Z,4.35
2018-01-04T20:43:16.708Z,4.22
2018-01-04T20:45:44.498Z,4.26
2018-01-04T20:48:12.459Z,4.16
2018-01-04T20:50:41.215Z,4.37
2018-01-04T20:53:09.831Z,4.11
2018-01-04T20:55:39.098Z,4.07
2018-01-04T20:58:07.102Z,4.06
2018-01-04T21:00:37.372Z,4.38
2018-01-04T21:03:05.783Z,4.40
2018-01-04T21:05:33.435Z,4.74
2018-01-04T21:08:01.373Z,4.64
2018-01-04T21:10:29.022Z,4.70
2018-01-04T21:12:56.833Z,4.50
2018-01-04T21:15:24.814Z,4.22
2018-01-04T21:17:53.468Z,4.54
2018-01-04T21:20:21.381Z,4.73
2018-01-04T21:22:49.115Z,4.81
2018-01-04T21:25:17.011Z,4.28
2018-01-04T21:27:44.820Z,4.28
2018-01-04T21:30:12.546Z,3.99
2018-01-04T21:32:40.314Z,4.38
2018-01-04T21:35:09.464Z,4.10
2018-01-04T21:37:37.170Z,4.52
2018-01-04T21:40:04.936Z,4.12
2018-01-04T21:42:32.653Z,4.17
2018-01-04T21:45:01.096Z,4.24
2018-01-04T21:47:28.889Z,4.32
2018-01-04T21:49:56.586Z,4.24
2018-01-04T21:52:24.250Z,4.48
2018-01-04T21:54:52.640Z,4.04
2018-01-04T21:57:20.614Z,3.67
2018-01-04T21:59:48.464Z,3.74
2018-01-04T22:02:16.170Z,3.56
2018-01-04T22:04:43.844Z,3.64
2018-01-04T22:07:11.806Z,3.98
2018-01-04T22:09:39.755Z,3.73
2018-01-04T22:12:07.635Z,3.73
2018-01-04T22:14:36.065Z,3.31
2018-01-04T22:17:03.751Z,3.42
2018-01-04T22:19:31.356Z,3.66
2018-01-04T22:21:59.029Z,3.59
2018-01-04T22:24:26.752Z,3.67
2018-01-04T22:26:54.395Z,3.57
2018-01-04T22:29:22.047Z,3.86
2018-01-04T22:31:49.717Z,3.71
2018-01-04T22:34:17.336Z,3.88
2018-01-04T22:36:44.905Z,3.97
2018-01-04T22:39:14.338Z,3.89
2018-01-04T22:41:42.724Z,3.91
2018-01-04T22:44:10.373Z,4.23
2018-01-04T22:46:37.979Z,4.44
2018-01-04T22:49:05.662Z,4.07
2018-01-04T22:51:33.255Z,4.09
2018-01-04T22:54:00.956Z,3.79
2018-01-04T22:56:28.572Z,3.78
2018-01-04T22:58:56.139Z,3.90
2018-01-04T23:01:24.042Z,3.75
2018-01-04T23:03:51.863Z,3.56
2018-01-04T23:06:19.651Z,3.62
2018-01-04T23:08:47.252Z,3.58
2018-01-04T23:11:15.362Z,3.36
2018-01-04T23:13:43.010Z,3.35
2018-01-04T23:16:10.933Z,3.63
2018-01-04T23:18:53.317Z,3.61
2018-01-04T23:21:21.674Z,3.72
2018-01-04T23:23:49.476Z,3.77
2018-01-04T23:26:17.114Z,3.78
2018-01-04T23:28:44.827Z,3.68
2018-01-04T23:31:12.436Z,3.83
2018-01-04T23:33:40.061Z,3.84
2018-01-04T23:36:08.824Z,3.64
2018-01-04T23:38:37.485Z,3.83
2018-01-04T23:41:06.508Z,3.54
2018-01-04T23:43:35.250Z,3.59
2018-01-04T23:46:02.917Z,3.73
2018-01-04T23:48:31.234Z,4.15
2018-01-04T23:50:58.910Z,3.82
2018-01-04T23:53:26.772Z,3.15
2018-01-04T23:55:54.428Z,3.34
2018-01-04T23:58:23.837Z,2.42
